Weather Outlook 11th November 2019(6pm)

Unstable conditions will continue to move across Saint Vincent and the Grenadines (SVG) tonight. Lower level moisture will remain elevated but the mid to upper levels have become less favourable for enhancement of shower activities. Tonight, some showers and a slight chance of isolated thunderstorms are forecast across SVG.

Instability will linger into the morning with a gradual improvement as the day progress. After which, dry mid to upper levels are likely to suppress any significant shower activity. A few showers are forecast Tuesday night into Wednesday, and a light wind regime is likely to result in some localized convective activity into Thursday.

A moderate (25km/h-35km/h) north easterly wind flow is anticipated with possible gentle breeze around Wednesday and Thursday.  Sea conditions will be slight to moderate in open waters (1.0m -2.0m) with slight deterioration on the east coast occasionally. There will be no significant haze intrusion within this forecast period.

Aviation WX

[Source: ADDS]
METAR
TVSA 280000Z 00000KT 9999 FEW018 26/22 Q1015 =
TVSA 272300Z 2800/2824 11008KT 9999 SCT022
TAF
TVSA 272300Z 2800/2824 11008KT 9999 SCT022 =
SR / SS: 10:31 / 22:02 UTC (Sunrise Sunset 2020-01-27)